Time;durP1;ratioP1;P1;durP2;ratioP2;P2;SDS_P1;SDS_P2;PMS_P1;PMS_P2;Temp;Humidity;BMP_temperature;BMP_pressure;BME280_temperature;BME280_humidity;BME280_pressure;Samples;Min_cycle;Max_cycle;Signal;HPM_P1;HPM_P2
2021/11/18 00:01:51;;;;;;;9.55;7.70;;;;;;;;;;5883717;24;20014;-82
2021/11/18 00:05:12;;;;;;;8.40;6.85;;;;;;;;;;5927468;24;19994;-82
2021/11/18 00:08:39;;;;;;;10.50;7.35;;;;;;;;;;5926635;24;20018;-82
2021/11/18 00:18:57;;;;;;;8.25;6.78;;;;;;;;;;5844145;24;20025;-82
2021/11/18 00:25:43;;;;;;;7.88;6.38;;;;;;;;;;5792134;24;20022;-82
2021/11/18 00:28:56;;;;;;;9.23;6.22;;;;;;;;;;5814250;24;20002;-82
2021/11/18 00:36:05;;;;;;;10.57;7.50;;;;;;;;;;5898688;24;20059;-82
2021/11/18 00:40:08;;;;;;;8.43;6.43;;;;;;;;;;5893242;24;20005;-82
2021/11/18 00:43:18;;;;;;;9.75;6.95;;;;;;;;;;5817164;24;20007;-82
2021/11/18 00:46:20;;;;;;;7.45;6.65;;;;;;;;;;5819165;24;20019;-83
2021/11/18 00:49:27;;;;;;;10.13;7.40;;;;;;;;;;5816311;24;20007;-83
2021/11/18 00:56:41;;;;;;;9.27;8.27;;;;;;;;;;5773677;24;20010;-81
2021/11/18 01:03:54;;;;;;;9.38;7.25;;;;;;;;;;5819566;24;20020;-83
2021/11/18 01:07:40;;;;;;;9.63;7.13;;;;;;;;;;5822017;24;20027;-83
2021/11/18 01:11:08;;;;;;;8.70;7.05;;;;;;;;;;5795761;24;20030;-82
2021/11/18 01:14:21;;;;;;;9.48;7.65;;;;;;;;;;5839044;24;19991;-83
2021/11/18 01:17:27;;;;;;;8.25;7.00;;;;;;;;;;5845186;24;20043;-82
2021/11/18 01:21:17;;;;;;;;;;;;;;;;;;;;;
2021/11/18 01:25:15;;;;;;;9.98;7.80;;;;;;;;;;6019736;23;20044;-82
2021/11/18 01:28:40;;;;;;;;;;;;;;;;;;5934033;23;20034;-82
2021/11/18 01:35:44;;;;;;;9.07;7.40;;;;;;;;;;5902331;24;20029;-83
2021/11/18 01:43:15;;;;;;;14.73;10.90;;;;;;;;;;5849580;24;20164;-83
2021/11/18 01:46:59;;;;;;;13.85;10.73;;;;;;;;;;5689019;25;20013;-82
2021/11/18 01:50:24;;;;;;;13.60;10.85;;;;;;;;;;5689757;25;20022;-82
2021/11/18 02:05:09;;;;;;;12.02;9.20;;;;;;;;;;5548951;25;20024;-83
2021/11/18 02:15:56;;;;;;;12.70;10.68;;;;;;;;;;5660387;25;20016;-83
2021/11/18 02:19:14;;;;;;;17.20;13.25;;;;;;;;;;5821466;24;20011;-82
2021/11/18 02:29:24;;;;;;;12.77;10.18;;;;;;;;;;5821154;24;20290;-81
2021/11/18 02:32:33;;;;;;;13.18;9.73;;;;;;;;;;5816036;24;19996;-82
2021/11/18 02:36:02;;;;;;;12.18;9.80;;;;;;;;;;5848443;24;20002;-82
2021/11/18 02:39:30;;;;;;;11.98;9.50;;;;;;;;;;5844782;24;20066;-82
2021/11/18 02:45:35;;;;;;;11.70;9.20;;;;;;;;;;5846084;24;19935;-82
2021/11/18 02:49:45;;;;;;;10.07;8.90;;;;;;;;;;5849881;24;20003;-82
2021/11/18 02:53:06;;;;;;;10.45;9.07;;;;;;;;;;5826566;24;19999;-82
2021/11/18 02:56:15;;;;;;;10.48;8.63;;;;;;;;;;5845053;24;20011;-82
2021/11/18 02:59:23;;;;;;;12.32;9.18;;;;;;;;;;5872968;24;19999;-82
2021/11/18 03:09:51;;;;;;;10.77;8.63;;;;;;;;;;5789493;24;20027;-81
2021/11/18 03:12:35;;;;;;;10.30;8.80;;;;;;;;;;5693302;25;20018;-82
2021/11/18 03:15:20;;;;;;;9.93;7.97;;;;;;;;;;5681130;25;20010;-82
2021/11/18 03:21:55;;;;;;;13.07;9.50;;;;;;;;;;5666176;25;20097;-82
2021/11/18 03:24:49;;;;;;;10.00;7.70;;;;;;;;;;5737840;25;20013;-82
2021/11/18 03:44:54;;;;;;;11.68;8.75;;;;;;;;;;5979702;23;20042;-82
2021/11/18 03:47:50;;;;;;;11.55;9.57;;;;;;;;;;5959310;24;20065;-82
2021/11/18 03:51:04;;;;;;;11.25;8.77;;;;;;;;;;5981877;23;20025;-82
2021/11/18 03:54:28;;;;;;;10.70;8.48;;;;;;;;;;5981974;23;20000;-83
2021/11/18 03:57:40;;;;;;;11.07;9.40;;;;;;;;;;5953953;24;20103;-81
2021/11/18 04:01:02;;;;;;;11.38;9.15;;;;;;;;;;5951811;24;20004;-82
2021/11/18 04:04:09;;;;;;;10.75;9.38;;;;;;;;;;5899028;24;20046;-82
2021/11/18 04:07:14;;;;;;;12.55;9.60;;;;;;;;;;5933959;23;20086;-82
2021/11/18 04:11:12;;;;;;;11.20;9.18;;;;;;;;;;5927159;24;20025;-80
2021/11/18 04:14:40;;;;;;;12.13;9.88;;;;;;;;;;5928178;24;20018;-82
2021/11/18 04:18:04;;;;;;;12.13;9.73;;;;;;;;;;5899581;24;20018;-83
2021/11/18 04:21:44;;;;;;;12.38;9.73;;;;;;;;;;5896218;24;20010;-81
2021/11/18 04:24:57;;;;;;;12.68;10.13;;;;;;;;;;5844155;24;20021;-83
2021/11/18 04:28:51;;;;;;;13.52;9.52;;;;;;;;;;5857021;24;20007;-82
2021/11/18 04:41:56;;;;;;;10.23;8.85;;;;;;;;;;5766083;24;20059;-82
2021/11/18 04:45:47;;;;;;;12.05;10.07;;;;;;;;;;5769224;24;20014;-82
2021/11/18 04:49:08;;;;;;;12.13;10.15;;;;;;;;;;5767028;24;20016;-82
2021/11/18 04:52:24;;;;;;;13.77;10.20;;;;;;;;;;5844046;24;20010;-82
2021/11/18 04:56:13;;;;;;;12.45;9.82;;;;;;;;;;5849596;24;20015;-82
2021/11/18 04:59:41;;;;;;;14.52;10.93;;;;;;;;;;5841574;24;20019;-82
2021/11/18 05:02:13;;;;;;;;;;;;;;;;;;5905501;24;20009;-81
2021/11/18 05:06:00;;;;;;;14.10;11.02;;;;;;;;;;5923270;24;19918;-81
2021/11/18 05:09:17;;;;;;;12.88;10.45;;;;;;;;;;5938345;24;20024;-82
2021/11/18 05:12:26;;;;;;;13.80;10.75;;;;;;;;;;5931725;24;20015;-82
2021/11/18 05:15:51;;;;;;;12.75;10.70;;;;;;;;;;5979565;24;19996;-82
2021/11/18 05:22:47;;;;;;;13.02;10.27;;;;;;;;;;6046941;23;20006;-82
2021/11/18 05:26:14;;;;;;;15.93;10.68;;;;;;;;;;6036348;23;19999;-82
2021/11/18 05:36:43;;;;;;;13.85;10.68;;;;;;;;;;6009202;23;20065;-81
2021/11/18 05:39:37;;;;;;;13.63;10.65;;;;;;;;;;6006277;24;20001;-82
2021/11/18 05:43:17;;;;;;;14.73;11.18;;;;;;;;;;5994970;23;20007;-83
2021/11/18 05:46:56;;;;;;;14.85;11.40;;;;;;;;;;6001529;24;20008;-82
2021/11/18 05:50:27;;;;;;;13.50;11.40;;;;;;;;;;5983050;23;20020;-82
2021/11/18 06:00:46;;;;;;;19.55;13.45;;;;;;;;;;5948246;24;20001;-82
2021/11/18 06:04:00;;;;;;;19.00;13.80;;;;;;;;;;5957774;24;20029;-81
2021/11/18 06:07:37;;;;;;;16.73;13.68;;;;;;;;;;5946994;24;20085;-81
2021/11/18 06:11:01;;;;;;;18.30;14.23;;;;;;;;;;5947865;24;20009;-82
2021/11/18 06:14:56;;;;;;;16.17;13.82;;;;;;;;;;5952671;23;20013;-81
2021/11/18 06:36:36;;;;;;;17.90;14.43;;;;;;;;;;6223016;22;20035;-81
2021/11/18 06:39:21;;;;;;;17.85;15.27;;;;;;;;;;6232986;23;20013;-81
2021/11/18 06:42:12;;;;;;;20.58;16.48;;;;;;;;;;6157844;23;20005;-81
2021/11/18 06:44:46;;;;;;;25.40;19.38;;;;;;;;;;6223422;23;20020;-80
2021/11/18 06:47:33;;;;;;;21.98;17.42;;;;;;;;;;6229258;23;19997;-81
2021/11/18 06:50:26;;;;;;;23.05;18.83;;;;;;;;;;6157831;23;20035;-81
2021/11/18 06:53:00;;;;;;;28.77;20.17;;;;;;;;;;6235355;23;20011;-81
2021/11/18 06:55:54;;;;;;;24.77;19.58;;;;;;;;;;6240528;23;20019;-81
2021/11/18 06:58:46;;;;;;;27.77;19.40;;;;;;;;;;6212601;23;20039;-81
2021/11/18 07:01:46;;;;;;;30.33;22.73;;;;;;;;;;6235904;23;20003;-81
2021/11/18 07:04:27;;;;;;;28.48;20.60;;;;;;;;;;6211527;23;20034;-81
2021/11/18 07:06:54;;;;;;;27.27;21.17;;;;;;;;;;6231703;23;20008;-80
2021/11/18 07:09:30;;;;;;;21.83;17.92;;;;;;;;;;6193127;23;20035;-81
2021/11/18 07:11:56;;;;;;;19.85;16.00;;;;;;;;;;6225271;23;20009;-80
2021/11/18 07:14:31;;;;;;;18.35;15.60;;;;;;;;;;6227237;23;20008;-81
2021/11/18 07:17:13;;;;;;;19.10;15.95;;;;;;;;;;6226463;23;20058;-80
2021/11/18 07:19:56;;;;;;;26.45;21.48;;;;;;;;;;6229094;23;20079;-81
2021/11/18 07:22:49;;;;;;;26.40;20.85;;;;;;;;;;6231733;23;19996;-81
2021/11/18 07:25:25;;;;;;;22.27;18.55;;;;;;;;;;6181340;23;20000;-81
2021/11/18 07:28:38;;;;;;;23.45;20.23;;;;;;;;;;6205499;23;20004;-80
2021/11/18 07:31:57;;;;;;;21.83;18.27;;;;;;;;;;6169768;23;20009;-81
2021/11/18 07:38:18;;;;;;;24.02;19.52;;;;;;;;;;6132282;23;20104;-81
2021/11/18 07:41:15;;;;;;;22.50;17.23;;;;;;;;;;6116158;23;20018;-81
2021/11/18 07:43:49;;;;;;;22.38;17.13;;;;;;;;;;6098930;23;20013;-81
2021/11/18 07:46:19;;;;;;;23.42;17.63;;;;;;;;;;6141615;23;20010;-81
2021/11/18 07:48:56;;;;;;;24.95;17.13;;;;;;;;;;6070216;23;20025;-81
2021/11/18 07:51:51;;;;;;;18.65;15.55;;;;;;;;;;6118291;23;20009;-81
2021/11/18 07:54:34;;;;;;;22.30;17.33;;;;;;;;;;6095282;23;20066;-81
2021/11/18 07:57:07;;;;;;;24.90;20.60;;;;;;;;;;6141031;23;20017;-81
2021/11/18 07:59:44;;;;;;;20.50;16.02;;;;;;;;;;6158098;23;20005;-81
2021/11/18 08:02:14;;;;;;;22.30;19.25;;;;;;;;;;6216550;23;20004;-81
2021/11/18 08:04:47;;;;;;;23.95;18.33;;;;;;;;;;6206275;23;20005;-81
2021/11/18 08:07:20;;;;;;;23.35;19.02;;;;;;;;;;6231570;23;20012;-81
2021/11/18 08:11:04;;;;;;;20.10;17.75;;;;;;;;;;6148734;23;20155;-81
2021/11/18 08:14:19;;;;;;;20.20;15.98;;;;;;;;;;6123616;23;20001;-82
2021/11/18 08:17:51;;;;;;;20.00;16.05;;;;;;;;;;6099168;23;20006;-81
2021/11/18 08:21:05;;;;;;;21.08;17.35;;;;;;;;;;6119993;23;20011;-81
2021/11/18 08:23:59;;;;;;;22.48;17.50;;;;;;;;;;6120664;23;20006;-82
2021/11/18 08:26:57;;;;;;;23.88;17.45;;;;;;;;;;6114400;23;19997;-82
2021/11/18 08:29:57;;;;;;;17.33;14.75;;;;;;;;;;6121929;23;20007;-82
2021/11/18 08:33:06;;;;;;;21.83;17.13;;;;;;;;;;6120187;23;19986;-82
2021/11/18 08:36:23;;;;;;;21.50;17.50;;;;;;;;;;6148001;23;20053;-81
2021/11/18 08:39:22;;;;;;;24.95;20.75;;;;;;;;;;6149273;23;20029;-81
2021/11/18 08:42:59;;;;;;;22.05;18.60;;;;;;;;;;6125043;23;20013;-82
2021/11/18 08:46:05;;;;;;;18.98;15.65;;;;;;;;;;6149323;23;20001;-82
2021/11/18 08:49:35;;;;;;;18.27;15.63;;;;;;;;;;6177553;23;20076;-81
2021/11/18 08:52:47;;;;;;;18.02;16.08;;;;;;;;;;6176576;23;20025;-82
2021/11/18 08:56:01;;;;;;;19.17;16.20;;;;;;;;;;6154866;23;20021;-82
2021/11/18 08:59:15;;;;;;;17.75;14.93;;;;;;;;;;6179113;23;20081;-81
2021/11/18 09:02:13;;;;;;;17.52;15.73;;;;;;;;;;6118104;23;20042;-82
2021/11/18 09:05:18;;;;;;;70.47;51.92;;;;;;;;;;6144822;23;20005;-81
2021/11/18 09:08:13;;;;;;;22.40;17.63;;;;;;;;;;6121559;23;20082;-82
2021/11/18 09:14:44;;;;;;;24.20;19.92;;;;;;;;;;6098755;23;20079;-81
2021/11/18 09:17:45;;;;;;;19.20;15.27;;;;;;;;;;6175178;23;20013;-81
2021/11/18 09:21:27;;;;;;;20.98;17.13;;;;;;;;;;6120043;23;20054;-82
2021/11/18 09:24:32;;;;;;;19.02;16.63;;;;;;;;;;6076936;23;20011;-81
2021/11/18 09:27:25;;;;;;;19.63;15.52;;;;;;;;;;6055321;23;20054;-81
2021/11/18 09:30:52;;;;;;;20.02;17.38;;;;;;;;;;6052285;23;20009;-81
2021/11/18 09:39:55;;;;;;;20.20;17.02;;;;;;;;;;6054361;23;19912;-81
2021/11/18 09:42:45;;;;;;;21.73;17.75;;;;;;;;;;6050281;23;20003;-81
2021/11/18 09:46:26;;;;;;;17.58;15.80;;;;;;;;;;6170448;22;20021;-81
2021/11/18 09:49:31;;;;;;;16.07;14.27;;;;;;;;;;6177590;23;20012;-81
2021/11/18 09:52:54;;;;;;;21.52;19.02;;;;;;;;;;6176172;23;20012;-81
2021/11/18 09:55:58;;;;;;;18.70;15.02;;;;;;;;;;6180831;23;20036;-81
2021/11/18 09:59:19;;;;;;;19.20;15.40;;;;;;;;;;6205404;23;20009;-81
2021/11/18 10:02:28;;;;;;;18.98;15.57;;;;;;;;;;6200563;23;20343;-81
2021/11/18 10:08:56;;;;;;;37.08;29.48;;;;;;;;;;6205941;23;20394;-81
2021/11/18 10:12:09;;;;;;;18.15;16.10;;;;;;;;;;6199227;23;20029;-81
2021/11/18 10:15:08;;;;;;;19.50;17.30;;;;;;;;;;6203353;23;20012;-81
2021/11/18 10:18:15;;;;;;;19.60;17.60;;;;;;;;;;6175412;23;20033;-81
2021/11/18 10:21:09;;;;;;;18.13;16.20;;;;;;;;;;6118941;23;20006;-82
2021/11/18 10:24:15;;;;;;;17.70;15.85;;;;;;;;;;6145103;23;20009;-82
2021/11/18 10:27:46;;;;;;;23.23;19.40;;;;;;;;;;6097855;23;20318;-81
2021/11/18 10:30:50;;;;;;;22.15;19.85;;;;;;;;;;6142855;23;20014;-81
2021/11/18 10:33:25;;;;;;;31.58;27.90;;;;;;;;;;6121990;23;20089;-81
2021/11/18 10:36:34;;;;;;;20.67;18.42;;;;;;;;;;6095764;23;20017;-81
2021/11/18 10:40:17;;;;;;;16.45;14.75;;;;;;;;;;6144241;23;20010;-81
2021/11/18 10:43:39;;;;;;;18.15;15.93;;;;;;;;;;6084950;23;20022;-81
2021/11/18 10:46:47;;;;;;;19.13;17.13;;;;;;;;;;6004166;23;20052;-81
2021/11/18 10:49:46;;;;;;;17.08;15.27;;;;;;;;;;5973721;24;20016;-81
2021/11/18 10:52:45;;;;;;;47.97;29.83;;;;;;;;;;5979631;23;20065;-81
2021/11/18 10:55:21;;;;;;;17.25;14.20;;;;;;;;;;5945930;24;20061;-80
2021/11/18 10:58:00;;;;;;;41.80;26.05;;;;;;;;;;5964593;24;20027;-81
2021/11/18 11:01:11;;;;;;;24.70;18.23;;;;;;;;;;5923984;24;20080;-81
2021/11/18 11:04:07;;;;;;;36.72;28.02;;;;;;;;;;5943077;24;20060;-81
2021/11/18 11:07:11;;;;;;;23.90;19.42;;;;;;;;;;5940754;24;20020;-81
2021/11/18 11:10:27;;;;;;;23.35;20.02;;;;;;;;;;5942153;24;20013;-81
2021/11/18 11:13:19;;;;;;;26.52;20.00;;;;;;;;;;5941502;24;20014;-81
2021/11/18 11:16:23;;;;;;;24.15;16.73;;;;;;;;;;5935193;24;20018;-81
2021/11/18 11:19:20;;;;;;;20.85;17.85;;;;;;;;;;5995941;24;20008;-81
2021/11/18 11:22:17;;;;;;;19.65;16.25;;;;;;;;;;5968460;23;20040;-81
2021/11/18 11:25:21;;;;;;;22.63;16.50;;;;;;;;;;6024461;23;20431;-80
2021/11/18 11:28:11;;;;;;;18.05;15.70;;;;;;;;;;6020861;23;20012;-80
2021/11/18 11:30:55;;;;;;;15.52;13.45;;;;;;;;;;6041227;23;20013;-80
2021/11/18 11:33:33;;;;;;;14.68;12.27;;;;;;;;;;6172089;23;20069;-80
2021/11/18 11:36:35;;;;;;;14.70;12.55;;;;;;;;;;6144162;23;20036;-81
2021/11/18 11:39:42;;;;;;;15.85;13.13;;;;;;;;;;6170651;23;20006;-81
2021/11/18 11:43:19;;;;;;;16.90;12.70;;;;;;;;;;6142943;23;20005;-81
2021/11/18 11:46:12;;;;;;;14.57;12.98;;;;;;;;;;6162083;23;20006;-81
2021/11/18 11:48:54;;;;;;;15.55;12.75;;;;;;;;;;6176965;23;20013;-81
2021/11/18 11:51:59;;;;;;;18.35;16.45;;;;;;;;;;6174575;23;20040;-81
2021/11/18 11:55:27;;;;;;;14.30;12.32;;;;;;;;;;6171873;23;20006;-81
2021/11/18 11:58:26;;;;;;;13.60;11.32;;;;;;;;;;6175940;23;20009;-81
2021/11/18 12:01:49;;;;;;;14.25;12.27;;;;;;;;;;6170551;23;20010;-81
2021/11/18 12:05:07;;;;;;;13.40;10.60;;;;;;;;;;6168222;23;19998;-81
2021/11/18 12:08:23;;;;;;;11.88;9.73;;;;;;;;;;6169844;23;20076;-81
2021/11/18 12:11:04;;;;;;;12.10;9.77;;;;;;;;;;6120719;23;20044;-82
2021/11/18 12:13:44;;;;;;;11.98;9.25;;;;;;;;;;6169590;23;20032;-82
2021/11/18 12:17:03;;;;;;;8.05;7.25;;;;;;;;;;6176883;23;20507;-83
2021/11/18 12:19:39;;;;;;;9.88;8.85;;;;;;;;;;6162600;23;20060;-85
2021/11/18 12:22:49;;;;;;;8.13;7.32;;;;;;;;;;6155214;23;20006;-86
2021/11/18 12:25:21;;;;;;;8.60;7.70;;;;;;;;;;6093801;23;20014;-86
2021/11/18 12:28:01;;;;;;;9.50;7.25;;;;;;;;;;6093131;23;20242;-86
2021/11/18 12:30:31;;;;;;;7.00;6.30;;;;;;;;;;6093501;23;20010;-85
2021/11/18 12:33:09;;;;;;;8.43;6.75;;;;;;;;;;6093393;23;20006;-85
2021/11/18 12:36:17;;;;;;;11.23;7.47;;;;;;;;;;6093571;23;20010;-86
2021/11/18 12:38:54;;;;;;;7.18;5.90;;;;;;;;;;6075035;23;20010;-85
2021/11/18 12:41:38;;;;;;;7.05;5.85;;;;;;;;;;6093776;23;20018;-85
2021/11/18 12:44:21;;;;;;;6.53;5.82;;;;;;;;;;6093301;23;20007;-85
2021/11/18 12:47:01;;;;;;;7.53;6.10;;;;;;;;;;6093372;23;20054;-85
2021/11/18 12:49:55;;;;;;;8.80;6.22;;;;;;;;;;6093383;23;20025;-85
2021/11/18 12:52:36;;;;;;;7.13;6.18;;;;;;;;;;6076437;23;20013;-85
2021/11/18 12:55:14;;;;;;;7.90;6.18;;;;;;;;;;6093262;23;20450;-85
2021/11/18 12:57:54;;;;;;;10.25;8.38;;;;;;;;;;6090256;23;20010;-85
2021/11/18 13:00:42;;;;;;;7.47;5.80;;;;;;;;;;6092202;23;20006;-85
2021/11/18 13:03:10;;;;;;;6.57;5.85;;;;;;;;;;6150628;23;20173;-84
2021/11/18 13:05:44;;;;;;;7.30;6.32;;;;;;;;;;6153786;23;20001;-86
2021/11/18 13:08:41;;;;;;;6.55;5.32;;;;;;;;;;6154022;23;20336;-84
2021/11/18 13:11:24;;;;;;;7.07;5.38;;;;;;;;;;6154771;23;20001;-84
2021/11/18 13:14:30;;;;;;;5.28;4.78;;;;;;;;;;6153699;23;20016;-81
2021/11/18 13:17:47;;;;;;;6.18;5.25;;;;;;;;;;6153564;23;20071;-82
2021/11/18 13:21:03;;;;;;;4.80;4.30;;;;;;;;;;6153949;23;20002;-81
2021/11/18 13:23:29;;;;;;;6.85;4.28;;;;;;;;;;6154346;23;20009;-81
2021/11/18 13:26:01;;;;;;;5.60;4.67;;;;;;;;;;6154189;23;20009;-82
2021/11/18 13:28:41;;;;;;;6.68;5.10;;;;;;;;;;6154058;23;20113;-82
2021/11/18 13:31:07;;;;;;;7.15;5.57;;;;;;;;;;6154334;23;20036;-83
2021/11/18 13:33:43;;;;;;;6.15;5.30;;;;;;;;;;6154242;23;20005;-84
2021/11/18 13:36:20;;;;;;;6.50;4.55;;;;;;;;;;6154224;23;20005;-86
2021/11/18 13:39:01;;;;;;;5.80;4.57;;;;;;;;;;6154851;23;20039;-86
2021/11/18 13:41:43;;;;;;;6.78;4.88;;;;;;;;;;6154695;23;20317;-86
2021/11/18 13:44:10;;;;;;;5.90;4.45;;;;;;;;;;6158504;23;20005;-86
2021/11/18 13:46:39;;;;;;;5.20;4.63;;;;;;;;;;6184304;23;20001;-84
2021/11/18 13:50:02;;;;;;;6.70;4.80;;;;;;;;;;6188633;23;20032;-82
2021/11/18 13:53:26;;;;;;;5.80;3.92;;;;;;;;;;6067242;23;20019;-83
2021/11/18 13:56:54;;;;;;;4.80;4.28;;;;;;;;;;6060291;23;20002;-83
2021/11/18 13:59:58;;;;;;;6.50;4.35;;;;;;;;;;6063999;23;19991;-82
2021/11/18 14:02:42;;;;;;;4.97;4.00;;;;;;;;;;5995105;23;20022;-82
2021/11/18 14:05:22;;;;;;;7.47;4.50;;;;;;;;;;6064062;23;20102;-82
2021/11/18 14:08:39;;;;;;;8.27;3.92;;;;;;;;;;6041850;23;20011;-81
2021/11/18 14:11:29;;;;;;;6.97;5.30;;;;;;;;;;5967471;23;20016;-82
2021/11/18 14:14:44;;;;;;;6.68;4.63;;;;;;;;;;5953069;24;20008;-83
2021/11/18 14:18:37;;;;;;;8.15;4.65;;;;;;;;;;5921708;24;20001;-81
2021/11/18 14:21:31;;;;;;;6.65;4.72;;;;;;;;;;5817701;24;20015;-82
2021/11/18 14:24:12;;;;;;;5.70;5.20;;;;;;;;;;5815354;24;20019;-82
2021/11/18 14:27:20;;;;;;;7.25;6.10;;;;;;;;;;5812812;24;20063;-82
2021/11/18 14:29:53;;;;;;;5.25;4.75;;;;;;;;;;5853347;24;20014;-82
2021/11/18 14:32:58;;;;;;;8.30;6.00;;;;;;;;;;5865304;24;20001;-82
2021/11/18 14:35:44;;;;;;;5.95;5.15;;;;;;;;;;5864322;24;20417;-83
2021/11/18 14:38:41;;;;;;;6.43;5.57;;;;;;;;;;5865217;24;20063;-82
2021/11/18 14:41:35;;;;;;;8.73;6.30;;;;;;;;;;5871536;24;20037;-82
2021/11/18 14:44:09;;;;;;;7.97;5.93;;;;;;;;;;5890452;24;20077;-82
2021/11/18 14:47:05;;;;;;;7.15;5.72;;;;;;;;;;5890531;24;20010;-82
2021/11/18 14:49:41;;;;;;;8.10;6.22;;;;;;;;;;5890648;24;20014;-82
2021/11/18 14:52:42;;;;;;;9.15;6.00;;;;;;;;;;5957187;24;20032;-82
2021/11/18 14:55:28;;;;;;;8.00;6.78;;;;;;;;;;5974089;24;20348;-82
2021/11/18 14:58:17;;;;;;;9.13;7.07;;;;;;;;;;6017011;23;20075;-82
2021/11/18 15:00:53;;;;;;;10.02;7.32;;;;;;;;;;6028484;23;20012;-82
2021/11/18 15:03:24;;;;;;;8.27;6.78;;;;;;;;;;6026141;23;20087;-82
2021/11/18 15:05:54;;;;;;;7.53;5.70;;;;;;;;;;6019260;23;20012;-82
2021/11/18 15:08:21;;;;;;;5.88;5.10;;;;;;;;;;6025048;23;20011;-81
2021/11/18 15:10:49;;;;;;;6.00;5.40;;;;;;;;;;6027413;23;20016;-82
2021/11/18 15:13:16;;;;;;;7.20;6.07;;;;;;;;;;6027149;23;20011;-82
2021/11/18 15:15:43;;;;;;;7.30;6.43;;;;;;;;;;6002197;23;20046;-82
2021/11/18 15:18:09;;;;;;;6.88;5.68;;;;;;;;;;6094164;23;20612;-81
2021/11/18 15:20:41;;;;;;;11.75;9.02;;;;;;;;;;6141617;23;20010;-82
2021/11/18 15:23:09;;;;;;;17.42;11.23;;;;;;;;;;6144086;23;20006;-81
2021/11/18 15:25:54;;;;;;;27.15;18.15;;;;;;;;;;6143462;23;20010;-82
2021/11/18 15:28:34;;;;;;;21.65;15.25;;;;;;;;;;6144237;23;20078;-82
2021/11/18 15:31:04;;;;;;;14.52;9.30;;;;;;;;;;6146368;23;20028;-82
2021/11/18 15:33:36;;;;;;;10.13;7.45;;;;;;;;;;6180893;23;20001;-83
2021/11/18 15:36:08;;;;;;;23.88;15.10;;;;;;;;;;6181363;23;20005;-82
2021/11/18 15:38:57;;;;;;;27.38;16.58;;;;;;;;;;6206486;23;20005;-82
2021/11/18 15:41:48;;;;;;;7.45;6.50;;;;;;;;;;6195429;23;20017;-82
2021/11/18 15:44:17;;;;;;;7.80;6.30;;;;;;;;;;6144931;23;20028;-82
2021/11/18 15:46:45;;;;;;;12.93;9.85;;;;;;;;;;6119342;23;20269;-81
2021/11/18 15:49:13;;;;;;;24.95;16.75;;;;;;;;;;6120343;23;20010;-82
2021/11/18 15:51:44;;;;;;;7.38;6.30;;;;;;;;;;6122793;23;20010;-82
2021/11/18 15:54:46;;;;;;;7.70;6.18;;;;;;;;;;6138437;23;20016;-82
2021/11/18 16:01:07;;;;;;;5.75;4.45;;;;;;;;;;6060864;23;20050;-82
2021/11/18 16:04:35;;;;;;;5.93;4.75;;;;;;;;;;5978744;23;20028;-81
2021/11/18 16:07:12;;;;;;;12.07;8.82;;;;;;;;;;5977543;24;20009;-82
2021/11/18 16:09:59;;;;;;;15.07;11.60;;;;;;;;;;5978973;24;20032;-81
2021/11/18 16:12:59;;;;;;;13.50;9.57;;;;;;;;;;5956267;24;20004;-82
2021/11/18 16:15:41;;;;;;;11.25;7.82;;;;;;;;;;6018788;23;19991;-82
2021/11/18 16:18:39;;;;;;;6.47;5.07;;;;;;;;;;5989087;23;20016;-81
2021/11/18 16:21:46;;;;;;;5.15;4.20;;;;;;;;;;6007167;24;19992;-82
2021/11/18 16:24:53;;;;;;;5.47;4.30;;;;;;;;;;6007896;23;20008;-82
2021/11/18 16:28:20;;;;;;;4.45;3.50;;;;;;;;;;5941872;24;20040;-81
2021/11/18 16:31:49;;;;;;;5.55;4.28;;;;;;;;;;6007925;23;20007;-81
2021/11/18 16:34:53;;;;;;;5.18;4.00;;;;;;;;;;6000461;23;20023;-81
2021/11/18 16:38:08;;;;;;;5.95;4.47;;;;;;;;;;6034383;23;20011;-81
2021/11/18 17:44:36;;;;;;;8.93;7.07;;;;;;;;;;6243087;23;20024;-82
2021/11/18 17:58:54;;;;;;;6.97;6.25;;;;;;;;;;6243814;23;20019;-81
2021/11/18 18:51:10;;;;;;;7.45;6.38;;;;;;;;;;6237566;23;20026;-81
2021/11/18 19:12:10;;;;;;;;;;;;;;;;;;;;;
2021/11/18 19:22:16;;;;;;;;;;;;;;;;;;;;;
2021/11/18 21:06:51;;;;;;;13.40;9.27;;;;;;;;;;5842363;24;20076;-80
2021/11/18 21:10:34;;;;;;;12.60;8.60;;;;;;;;;;5872315;24;20015;-82
2021/11/18 21:13:55;;;;;;;10.90;8.70;;;;;;;;;;5879536;24;20002;-83
2021/11/18 22:23:10;;;;;;;;;;;;;;;;;;;;;
2021/11/18 22:30:19;;;;;;;;;;;;;;;;;;;;;
